logo tempoitalia

Diretta Meteo Imperial, Stati Uniti (USA)domenica 30 agosto ore 22:53

Mappa
Sereno 34 °C Sereno 24 Ore: T.min 30 T.max 43
Ponente Ovest Km/h 27.8 Punto di rugiada: 6 °C Umidità: 17% Visibilità: 10 Km
Il sole sorge alle: 06:15 Il sole tramonta alle: 19:09
30 Agosto 2026 22:53 tempo osservato: Sereno Sereno 34 17 1006 vento: Nord O 27.8
30 Agosto 2026 21:53 tempo osservato: Sereno Sereno 34 18 1006 vento: Nord O 24
30 Agosto 2026 20:53 tempo osservato: Sereno Sereno 35 19 1005 vento: Nord O 29.6
30 Agosto 2026 19:53 tempo osservato: Sereno Sereno 37 18 1004 vento: Nord O 27.8
30 Agosto 2026 18:53 tempo osservato: Sereno Sereno 39 16 1004 vento: Nord O 27.8
30 Agosto 2026 17:53 tempo osservato: Sereno Sereno 41 15 1003 vento: Nord O 25.9
30 Agosto 2026 16:53 tempo osservato: Sereno Sereno 42 19 1003 vento: Nord N 0
30 Agosto 2026 15:53 tempo osservato: Sereno Sereno 43 18 1004 vento: Nord S/SO 9.3
30 Agosto 2026 14:53 tempo osservato: Sereno Sereno 43 18 1005 vento: Nord O/SO 14.8
30 Agosto 2026 13:53 tempo osservato: Sereno Sereno 41 20 1006 vento: Nord N 7.4
30 Agosto 2026 12:53 tempo osservato: Sereno Sereno 40 31 1007 vento: Nord N 7.4
30 Agosto 2026 11:53 tempo osservato: Sereno Sereno 39 33 1008 vento: Nord N 0
30 Agosto 2026 10:53 tempo osservato: Sereno Sereno 38 42 1008 vento: Nord E/SE 16.7
30 Agosto 2026 09:53 tempo osservato: Sereno Sereno 36 56 1009 vento: Nord S/SE 20.3
30 Agosto 2026 08:53 tempo osservato: Sereno Sereno 35 56 1009 vento: Nord SE 29.6
30 Agosto 2026 07:53 tempo osservato: Sereno Sereno 33 27 1009 vento: Nord S/SO 11.1
30 Agosto 2026 06:53 tempo osservato: Sereno Sereno 32 29 1008 vento: Nord O 9.3
30 Agosto 2026 05:53 tempo osservato: Sereno Sereno 33 27 1007 vento: Nord SO 18.5
30 Agosto 2026 04:53 tempo osservato: Sereno Sereno 33 26 1007 vento: Nord O/NO 9.3
30 Agosto 2026 03:53 tempo osservato: Sereno Sereno 30 33 1006 vento: Nord O 16.7
30 Agosto 2026 02:53 tempo osservato: Sereno Sereno 33 27 1006 vento: Nord O/SO 20.3
30 Agosto 2026 01:53 tempo osservato: Sereno Sereno 34 24 1006 vento: Nord O 20.3
30 Agosto 2026 00:53 tempo osservato: Sereno Sereno 33 26 1006 vento: Nord O 14.8
29 Agosto 2026 23:53 tempo osservato: Sereno Sereno 34 28 1006 vento: Nord O/NO 11.1